createdAt,value
2019-05-07T00:01:12.268Z,1.10
2019-05-07T00:03:42.354Z,1.07
2019-05-07T00:06:13.249Z,1.55
2019-05-07T00:08:45.046Z,1.70
2019-05-07T00:11:14.850Z,1.50
2019-05-07T00:13:46.267Z,1.55
2019-05-07T00:16:16.061Z,1.20
2019-05-07T00:18:46.157Z,1.37
2019-05-07T00:21:15.954Z,1.30
2019-05-07T00:23:46.070Z,1.10
2019-05-07T00:26:15.948Z,1.67
2019-05-07T00:28:45.812Z,1.50
2019-05-07T00:31:15.694Z,1.10
2019-05-07T00:33:45.556Z,1.07
2019-05-07T00:36:33.398Z,1.00
2019-05-07T00:39:07.621Z,1.12
2019-05-07T00:41:42.734Z,1.27
2019-05-07T00:44:14.016Z,1.40
2019-05-07T00:46:43.834Z,1.40
2019-05-07T00:49:15.268Z,1.10
2019-05-07T00:51:45.541Z,1.05
2019-05-07T00:54:15.336Z,1.45
2019-05-07T00:56:45.141Z,1.10
2019-05-07T00:59:14.937Z,1.00
2019-05-07T01:01:44.733Z,1.10
2019-05-07T01:04:14.524Z,1.35
2019-05-07T01:06:44.352Z,1.00
2019-05-07T01:09:14.144Z,1.20
2019-05-07T01:11:43.948Z,1.10
2019-05-07T01:14:13.745Z,1.32
2019-05-07T01:16:44.505Z,0.98
2019-05-07T01:19:14.313Z,1.00
2019-05-07T01:21:44.116Z,1.00
2019-05-07T01:24:13.989Z,1.10
2019-05-07T01:26:43.776Z,1.27
2019-05-07T01:29:14.065Z,2.10
2019-05-07T01:31:45.492Z,1.00
2019-05-07T01:34:19.893Z,1.07
2019-05-07T01:36:49.689Z,1.17
2019-05-07T01:39:19.492Z,1.05
2019-05-07T01:41:49.290Z,0.98
2019-05-07T01:44:19.482Z,1.40
2019-05-07T01:46:49.272Z,1.30
2019-05-07T01:49:19.133Z,0.90
2019-05-07T01:51:49.224Z,1.20
2019-05-07T01:54:19.026Z,1.50
2019-05-07T01:56:48.894Z,1.40
2019-05-07T01:59:18.694Z,1.10
2019-05-07T02:01:52.192Z,1.15
2019-05-07T02:04:23.194Z,0.95
2019-05-07T02:07:06.937Z,1.00
2019-05-07T02:09:38.373Z,1.42
2019-05-07T02:12:26.225Z,1.20
2019-05-07T02:14:56.022Z,1.00
2019-05-07T02:17:26.157Z,0.95
2019-05-07T02:19:57.680Z,1.12
2019-05-07T02:22:27.832Z,1.10
2019-05-07T02:24:57.637Z,0.93
2019-05-07T02:27:27.428Z,1.25
2019-05-07T02:29:57.224Z,1.72
2019-05-07T02:32:27.020Z,1.20
2019-05-07T02:34:56.821Z,1.12
2019-05-07T02:37:35.719Z,1.30
2019-05-07T02:40:33.647Z,1.10
2019-05-07T02:43:02.853Z,0.95
2019-05-07T02:45:34.630Z,1.20
2019-05-07T02:48:04.501Z,1.10
2019-05-07T02:50:36.001Z,0.93
2019-05-07T02:53:07.457Z,1.17
2019-05-07T02:55:43.533Z,0.98
2019-05-07T02:58:13.877Z,0.90
2019-05-07T03:00:44.077Z,1.10
2019-05-07T03:03:14.070Z,1.10
2019-05-07T03:05:43.825Z,1.00
2019-05-07T03:08:13.773Z,0.98
2019-05-07T03:10:43.860Z,1.10
2019-05-07T03:13:14.197Z,1.10
2019-05-07T03:15:44.161Z,1.10
2019-05-07T03:18:18.848Z,1.20
2019-05-07T03:20:53.574Z,1.37
2019-05-07T03:23:25.157Z,1.37
2019-05-07T03:25:59.581Z,1.00
2019-05-07T03:28:29.377Z,1.15
2019-05-07T03:31:06.673Z,1.27
2019-05-07T03:33:46.561Z,1.12
2019-05-07T03:36:16.657Z,1.20
2019-05-07T03:38:44.171Z,1.35
2019-05-07T03:41:14.081Z,1.15
2019-05-07T03:43:44.349Z,1.40
2019-05-07T03:46:15.785Z,1.40
2019-05-07T03:48:46.648Z,1.50
2019-05-07T03:51:17.525Z,1.25
2019-05-07T03:53:47.314Z,1.37
2019-05-07T03:56:17.109Z,1.40
2019-05-07T03:58:46.977Z,0.95
2019-05-07T04:01:16.781Z,1.32
2019-05-07T04:03:47.978Z,1.10
2019-05-07T04:06:17.866Z,1.27
2019-05-07T04:08:47.657Z,1.22
2019-05-07T04:11:17.462Z,1.10
2019-05-07T04:13:47.651Z,0.98
2019-05-07T04:16:17.455Z,1.40
2019-05-07T04:18:47.325Z,1.12
2019-05-07T04:21:17.395Z,1.42
2019-05-07T04:23:48.831Z,1.37
2019-05-07T04:26:33.987Z,1.30
2019-05-07T04:29:06.324Z,1.50
2019-05-07T04:31:38.054Z,1.52
2019-05-07T04:34:09.481Z,1.70
2019-05-07T04:36:43.691Z,1.40
2019-05-07T04:39:13.243Z,1.35
2019-05-07T04:41:43.639Z,1.70
2019-05-07T04:44:14.388Z,1.82
2019-05-07T04:46:47.974Z,1.65
2019-05-07T04:49:15.686Z,1.50
2019-05-07T04:51:47.186Z,1.32
2019-05-07T04:54:17.053Z,1.27
2019-05-07T04:56:46.869Z,1.77
2019-05-07T04:59:16.658Z,1.40
2019-05-07T05:01:53.306Z,1.50
2019-05-07T05:04:30.245Z,1.32
2019-05-07T05:06:53.694Z,1.72
2019-05-07T05:09:23.599Z,1.50
2019-05-07T05:11:53.395Z,1.40
2019-05-07T05:14:23.257Z,1.40
2019-05-07T05:16:54.035Z,1.62
2019-05-07T05:19:23.838Z,1.65
2019-05-07T05:22:01.972Z,1.72
2019-05-07T05:24:36.231Z,2.50
2019-05-07T05:27:06.018Z,2.37
2019-05-07T05:29:37.264Z,1.65
2019-05-07T05:32:07.073Z,2.10
2019-05-07T05:34:37.931Z,1.57
2019-05-07T05:37:07.724Z,1.57
2019-05-07T05:39:37.546Z,1.60
2019-05-07T05:42:15.232Z,1.55
2019-05-07T05:44:45.046Z,1.67
2019-05-07T05:47:15.125Z,1.90
2019-05-07T05:49:45.201Z,1.70
2019-05-07T05:52:28.665Z,1.72
2019-05-07T05:55:02.425Z,1.72
2019-05-07T05:57:45.190Z,2.02
2019-05-07T06:00:21.935Z,2.10
2019-05-07T06:02:55.273Z,2.42
2019-05-07T06:05:42.936Z,3.35
2019-05-07T06:08:17.726Z,2.35
2019-05-07T06:10:51.777Z,2.83
2019-05-07T06:13:23.115Z,2.12
2019-05-07T06:15:57.564Z,2.98
2019-05-07T06:18:45.036Z,2.70
2019-05-07T06:21:16.479Z,3.00
2019-05-07T06:23:47.912Z,3.20
2019-05-07T06:26:18.144Z,2.50
2019-05-07T06:28:47.941Z,2.87
2019-05-07T06:31:22.171Z,2.22
2019-05-07T06:33:52.377Z,2.33
2019-05-07T06:36:22.534Z,3.27
2019-05-07T06:38:53.980Z,3.00
2019-05-07T06:41:34.629Z,3.25
2019-05-07T06:44:06.380Z,2.77
2019-05-07T06:46:38.753Z,3.33
2019-05-07T06:49:07.700Z,2.92
2019-05-07T06:51:37.537Z,3.98
2019-05-07T06:54:07.374Z,3.90
2019-05-07T06:56:37.236Z,3.85
2019-05-07T06:59:08.748Z,4.00
2019-05-07T07:01:45.884Z,2.83
2019-05-07T07:04:17.323Z,3.05
2019-05-07T07:06:52.441Z,1.90
2019-05-07T07:09:23.484Z,3.52
2019-05-07T07:12:13.052Z,3.95
2019-05-07T07:14:43.349Z,3.58
2019-05-07T07:17:13.221Z,3.30
2019-05-07T07:19:43.017Z,3.00
2019-05-07T07:22:13.154Z,3.15
2019-05-07T07:24:43.061Z,2.55
2019-05-07T07:27:13.311Z,2.67
2019-05-07T07:29:48.852Z,2.75
2019-05-07T07:32:22.141Z,2.55
2019-05-07T07:34:53.533Z,2.98
2019-05-07T07:37:27.692Z,3.25
2019-05-07T07:40:08.368Z,4.50
2019-05-07T07:42:38.230Z,2.75
2019-05-07T07:45:15.737Z,3.33
2019-05-07T07:47:46.468Z,3.12
2019-05-07T07:50:16.501Z,3.12
2019-05-07T07:52:46.301Z,3.10
2019-05-07T07:55:17.889Z,3.42
2019-05-07T07:57:49.326Z,2.85
2019-05-07T08:00:23.487Z,1.77
2019-05-07T08:02:54.921Z,1.20
2019-05-07T08:05:24.718Z,1.17
2019-05-07T08:07:54.517Z,1.20
2019-05-07T08:10:24.316Z,1.62
2019-05-07T08:16:02.329Z,1.70
2019-05-07T08:18:32.788Z,1.55
2019-05-07T08:21:02.705Z,2.40
2019-05-07T08:23:32.500Z,1.52
2019-05-07T08:26:02.617Z,1.62
2019-05-07T08:28:32.508Z,1.70
2019-05-07T08:31:12.047Z,2.27
2019-05-07T08:33:49.418Z,1.95
2019-05-07T08:36:22.610Z,1.67
2019-05-07T08:38:56.471Z,1.80
2019-05-07T08:41:27.100Z,1.87
2019-05-07T08:44:11.269Z,1.50
2019-05-07T08:46:42.178Z,1.52
2019-05-07T08:49:13.993Z,2.00
2019-05-07T08:51:43.825Z,2.00
2019-05-07T08:54:13.623Z,1.92
2019-05-07T08:56:43.437Z,2.08
2019-05-07T08:59:13.245Z,2.30
2019-05-07T09:01:43.467Z,2.02
2019-05-07T09:04:13.674Z,2.25
2019-05-07T09:06:43.568Z,2.00
2019-05-07T09:09:13.605Z,2.20
2019-05-07T09:11:43.566Z,2.62
2019-05-07T09:14:13.704Z,2.15
2019-05-07T09:16:43.498Z,2.22
2019-05-07T09:19:13.297Z,2.50
2019-05-07T09:21:43.186Z,2.75
2019-05-07T09:24:13.091Z,2.60
2019-05-07T09:26:47.236Z,2.90
2019-05-07T09:29:19.133Z,2.77
2019-05-07T09:31:52.650Z,3.02
2019-05-07T09:34:36.240Z,2.87
2019-05-07T09:37:07.679Z,3.08
2019-05-07T09:39:42.659Z,2.92
2019-05-07T09:42:12.294Z,3.17
2019-05-07T09:44:42.495Z,3.37
2019-05-07T09:47:12.894Z,2.92
2019-05-07T09:49:43.219Z,2.47
2019-05-07T09:52:13.409Z,2.17
2019-05-07T09:54:43.211Z,2.80
2019-05-07T09:57:27.406Z,3.00
2019-05-07T09:59:44.425Z,3.00
2019-05-07T10:02:14.298Z,3.17
2019-05-07T10:04:44.096Z,2.95
2019-05-07T10:07:13.905Z,2.83
2019-05-07T10:09:43.704Z,3.08
2019-05-07T10:12:22.729Z,2.90
2019-05-07T10:14:52.526Z,3.20
2019-05-07T10:17:32.613Z,3.25
2019-05-07T10:20:04.428Z,3.85
2019-05-07T10:22:33.275Z,3.15
2019-05-07T10:25:03.374Z,3.60
2019-05-07T10:27:33.209Z,3.50
2019-05-07T10:30:03.349Z,4.00
2019-05-07T10:32:34.753Z,3.92
2019-05-07T10:35:06.921Z,4.15
2019-05-07T10:37:37.068Z,4.40
2019-05-07T10:40:07.406Z,4.33
2019-05-07T10:42:37.268Z,3.77
2019-05-07T10:45:24.997Z,4.20
2019-05-07T10:47:56.438Z,3.90
2019-05-07T10:50:36.476Z,3.80
2019-05-07T10:52:59.304Z,3.85
2019-05-07T10:55:29.106Z,4.40
2019-05-07T10:57:58.972Z,4.58
2019-05-07T11:00:28.842Z,4.40
2019-05-07T11:02:58.717Z,4.55
2019-05-07T11:05:28.521Z,4.10
2019-05-07T11:07:58.314Z,4.35
2019-05-07T11:10:28.118Z,4.37
2019-05-07T11:12:57.986Z,4.22
2019-05-07T11:15:27.918Z,4.10
2019-05-07T11:18:12.660Z,3.92
2019-05-07T11:20:49.680Z,4.60
2019-05-07T11:23:14.024Z,3.55
2019-05-07T11:25:43.889Z,3.83
2019-05-07T11:28:13.693Z,3.85
2019-05-07T11:30:43.757Z,3.37
2019-05-07T11:33:13.566Z,3.95
2019-05-07T11:35:43.357Z,4.25
2019-05-07T11:38:20.768Z,4.75
2019-05-07T11:40:44.582Z,4.40
2019-05-07T11:43:24.980Z,3.65
2019-05-07T11:46:01.829Z,3.98
2019-05-07T11:48:36.188Z,4.33
2019-05-07T11:51:06.646Z,3.95
2019-05-07T11:53:38.406Z,3.55
2019-05-07T11:56:08.204Z,3.95
2019-05-07T11:58:38.005Z,3.58
2019-05-07T12:01:09.789Z,4.85
2019-05-07T12:03:39.669Z,4.22
2019-05-07T12:06:09.533Z,3.58
2019-05-07T12:08:48.090Z,4.60
2019-05-07T12:11:11.888Z,4.20
2019-05-07T12:13:42.733Z,4.00
2019-05-07T12:16:14.232Z,4.00
2019-05-07T12:18:44.509Z,4.97
2019-05-07T12:21:20.234Z,4.90
2019-05-07T12:23:45.740Z,4.65
2019-05-07T12:26:15.539Z,4.75
2019-05-07T12:28:45.332Z,4.72
2019-05-07T12:31:28.747Z,4.35
2019-05-07T12:34:02.428Z,4.90
2019-05-07T12:36:32.151Z,4.20
2019-05-07T12:39:02.470Z,4.62
2019-05-07T12:41:34.401Z,3.07
2019-05-07T12:44:06.299Z,4.70
2019-05-07T12:46:36.208Z,3.87
2019-05-07T12:49:06.430Z,5.60
2019-05-07T12:51:38.134Z,4.25
2019-05-07T12:54:11.875Z,3.87
2019-05-07T12:56:42.642Z,4.10
2019-05-07T12:59:13.769Z,4.37
2019-05-07T13:01:45.210Z,4.47
2019-05-07T13:04:22.011Z,4.47
2019-05-07T13:07:02.484Z,4.55
2019-05-07T13:09:32.545Z,4.00
2019-05-07T13:12:03.010Z,3.80
2019-05-07T13:14:32.896Z,4.50
2019-05-07T13:17:02.883Z,4.05
2019-05-07T13:19:33.156Z,3.37
2019-05-07T13:22:03.048Z,5.00
2019-05-07T13:24:34.476Z,3.70
2019-05-07T13:27:04.343Z,4.42
2019-05-07T13:29:34.134Z,4.50
2019-05-07T13:32:03.997Z,4.37
2019-05-07T13:34:34.877Z,4.40
2019-05-07T13:37:06.303Z,3.90
2019-05-07T13:39:37.751Z,3.72
2019-05-07T13:42:25.624Z,4.53
2019-05-07T13:44:57.060Z,4.40
2019-05-07T13:47:31.207Z,4.67
2019-05-07T13:50:02.598Z,3.62
2019-05-07T13:52:33.135Z,3.50
2019-05-07T13:55:03.080Z,3.50
2019-05-07T13:57:32.885Z,3.45
2019-05-07T14:00:05.086Z,4.72
2019-05-07T14:02:36.512Z,4.50
2019-05-07T14:05:06.689Z,5.25
2019-05-07T14:07:38.267Z,4.35
2019-05-07T14:10:08.129Z,3.72
2019-05-07T14:12:37.993Z,5.47
2019-05-07T14:15:07.788Z,4.72
2019-05-07T14:17:37.662Z,4.60
2019-05-07T14:20:07.497Z,4.90
2019-05-07T14:22:37.437Z,5.17
2019-05-07T14:25:07.236Z,4.05
2019-05-07T14:27:37.105Z,3.83
2019-05-07T14:30:07.611Z,3.80
2019-05-07T14:32:52.573Z,4.55
2019-05-07T14:35:26.795Z,4.20
2019-05-07T14:38:00.977Z,3.90
2019-05-07T14:40:33.077Z,3.55
2019-05-07T14:43:04.525Z,4.70
2019-05-07T14:45:34.350Z,3.72
2019-05-07T14:48:04.166Z,4.25
2019-05-07T14:50:33.952Z,3.92
2019-05-07T14:53:04.833Z,5.37
2019-05-07T14:55:34.628Z,4.90
2019-05-07T14:58:05.508Z,5.03
2019-05-07T15:00:35.442Z,5.85
2019-05-07T15:03:05.299Z,3.58
2019-05-07T15:05:35.099Z,5.37
2019-05-07T15:08:10.576Z,4.12
2019-05-07T15:10:36.306Z,6.20
2019-05-07T15:13:06.096Z,4.60
2019-05-07T15:15:35.898Z,2.67
2019-05-07T15:18:12.490Z,3.62
2019-05-07T15:20:43.244Z,3.72
2019-05-07T15:23:14.692Z,2.87
2019-05-07T15:25:44.485Z,3.15
2019-05-07T15:28:14.289Z,3.90
2019-05-07T15:30:54.604Z,4.17
2019-05-07T15:33:24.413Z,4.03
2019-05-07T15:35:54.201Z,3.85
2019-05-07T15:38:24.104Z,3.85
2019-05-07T15:40:53.905Z,3.77
2019-05-07T15:43:24.109Z,3.62
2019-05-07T15:45:53.909Z,3.95
2019-05-07T15:48:23.773Z,4.25
2019-05-07T15:50:53.572Z,5.75
2019-05-07T15:53:27.949Z,3.37
2019-05-07T15:55:57.743Z,4.25
2019-05-07T15:58:27.541Z,4.90
2019-05-07T16:00:57.345Z,5.40
2019-05-07T16:03:29.179Z,3.70
2019-05-07T16:05:59.034Z,4.17
2019-05-07T16:08:32.017Z,3.47
2019-05-07T16:11:03.756Z,3.90
2019-05-07T16:13:38.240Z,4.08
2019-05-07T16:16:08.111Z,4.75
2019-05-07T16:18:56.080Z,5.45
2019-05-07T16:21:26.847Z,6.20
2019-05-07T16:23:56.925Z,3.67
2019-05-07T16:26:26.731Z,5.55
2019-05-07T16:28:56.592Z,4.72
2019-05-07T16:31:26.697Z,5.70
2019-05-07T16:33:56.495Z,5.40
2019-05-07T16:36:26.297Z,4.83
2019-05-07T16:38:56.156Z,6.22
2019-05-07T16:41:25.961Z,7.30
2019-05-07T16:43:55.772Z,6.05
2019-05-07T16:46:25.568Z,4.70
2019-05-07T16:48:55.364Z,5.90
2019-05-07T16:51:25.166Z,6.05
2019-05-07T16:53:54.965Z,5.47
2019-05-07T16:56:24.768Z,6.33
2019-05-07T16:59:08.501Z,4.40
2019-05-07T17:01:39.364Z,5.00
2019-05-07T17:04:09.162Z,5.22
2019-05-07T17:06:39.033Z,6.78
2019-05-07T17:09:13.683Z,3.95
2019-05-07T17:11:43.903Z,4.25
2019-05-07T17:14:13.840Z,4.55
2019-05-07T17:16:43.648Z,7.33
2019-05-07T17:19:14.813Z,6.90
2019-05-07T17:21:44.689Z,6.00
2019-05-07T17:24:14.552Z,4.67
2019-05-07T17:26:44.353Z,6.25
2019-05-07T17:29:26.692Z,4.53
2019-05-07T17:31:56.552Z,5.50
2019-05-07T17:34:26.425Z,5.10
2019-05-07T17:36:56.288Z,4.67
2019-05-07T17:39:26.093Z,4.45
2019-05-07T17:41:55.961Z,3.60
2019-05-07T17:44:25.764Z,6.95
2019-05-07T17:46:55.561Z,5.58
2019-05-07T17:49:25.693Z,4.03
2019-05-07T17:51:55.787Z,5.08
2019-05-07T17:54:25.580Z,4.55
2019-05-07T17:56:55.377Z,3.72
2019-05-07T17:59:25.200Z,3.92
2019-05-07T18:01:56.649Z,3.70
2019-05-07T18:04:26.876Z,4.78
2019-05-07T18:07:00.113Z,4.30
2019-05-07T18:09:28.636Z,4.70
2019-05-07T18:11:58.500Z,4.58
2019-05-07T18:14:28.370Z,5.00
2019-05-07T18:17:02.000Z,4.67
2019-05-07T18:19:33.141Z,5.00
2019-05-07T18:22:03.382Z,4.87
2019-05-07T18:24:33.629Z,4.70
2019-05-07T18:27:05.473Z,4.60
2019-05-07T18:29:35.269Z,4.58
2019-05-07T18:32:06.837Z,4.70
2019-05-07T18:34:37.704Z,5.08
2019-05-07T18:37:07.506Z,4.55
2019-05-07T18:39:37.311Z,4.03
2019-05-07T18:42:07.091Z,4.60
2019-05-07T18:44:36.965Z,4.65
2019-05-07T18:47:06.757Z,4.55
2019-05-07T18:49:36.561Z,4.70
2019-05-07T18:52:06.668Z,4.55
2019-05-07T18:54:36.460Z,4.75
2019-05-07T18:57:06.256Z,3.98
2019-05-07T18:59:37.103Z,4.30
2019-05-07T19:02:07.771Z,4.95
2019-05-07T19:04:37.639Z,4.25
2019-05-07T19:07:07.448Z,3.98
2019-05-07T19:09:37.231Z,3.50
2019-05-07T19:12:08.899Z,4.33
2019-05-07T19:14:38.708Z,3.87
2019-05-07T19:17:08.569Z,4.03
2019-05-07T19:19:38.367Z,4.10
2019-05-07T19:22:08.156Z,4.30
2019-05-07T19:24:45.356Z,3.95
2019-05-07T19:27:12.633Z,3.98
2019-05-07T19:29:45.698Z,3.60
2019-05-07T19:32:14.761Z,3.87
2019-05-07T19:34:44.630Z,4.20
2019-05-07T19:37:14.420Z,3.98
2019-05-07T19:39:44.392Z,4.47
2019-05-07T19:42:14.193Z,5.08
2019-05-07T19:44:44.401Z,4.35
2019-05-07T19:47:14.199Z,4.62
2019-05-07T19:49:44.006Z,4.62
2019-05-07T19:52:13.801Z,4.97
2019-05-07T19:54:57.663Z,3.85
2019-05-07T19:57:21.096Z,3.58
2019-05-07T19:59:52.239Z,3.47
2019-05-07T20:02:31.999Z,3.67
2019-05-07T20:05:03.515Z,4.00
2019-05-07T20:07:33.076Z,4.15
2019-05-07T20:10:03.021Z,3.98
2019-05-07T20:12:34.249Z,4.10
2019-05-07T20:15:04.981Z,4.20
2019-05-07T20:17:34.852Z,3.77
2019-05-07T20:20:05.729Z,4.00
2019-05-07T20:22:35.593Z,3.72
2019-05-07T20:25:15.380Z,3.72
2019-05-07T20:27:38.973Z,3.67
2019-05-07T20:30:08.779Z,4.03
2019-05-07T20:32:39.737Z,4.15
2019-05-07T20:35:09.613Z,3.92
2019-05-07T20:37:41.789Z,4.20
2019-05-07T20:40:12.246Z,3.75
2019-05-07T20:42:42.889Z,3.62
2019-05-07T20:45:13.885Z,4.25
2019-05-07T20:47:43.962Z,3.92
2019-05-07T20:50:13.756Z,2.83
2019-05-07T20:52:43.633Z,3.70
2019-05-07T20:55:33.271Z,3.92
2019-05-07T20:58:03.189Z,3.98
2019-05-07T21:00:33.204Z,3.72
2019-05-07T21:03:23.741Z,3.17
2019-05-07T21:05:53.376Z,3.87
2019-05-07T21:08:24.229Z,3.58
2019-05-07T21:10:54.022Z,3.85
2019-05-07T21:13:30.385Z,3.30
2019-05-07T21:15:56.633Z,4.30
2019-05-07T21:18:26.466Z,3.30
2019-05-07T21:20:56.235Z,3.75
2019-05-07T21:23:26.024Z,3.60
2019-05-07T21:25:55.826Z,3.90
2019-05-07T21:28:25.619Z,3.70
2019-05-07T21:30:55.414Z,4.35
2019-05-07T21:33:25.496Z,3.60
2019-05-07T21:35:55.609Z,3.40
2019-05-07T21:38:25.728Z,3.70
2019-05-07T21:40:55.594Z,3.80
2019-05-07T21:43:25.399Z,3.70
2019-05-07T21:45:55.228Z,3.17
2019-05-07T21:48:25.093Z,3.55
2019-05-07T21:50:55.377Z,3.77
2019-05-07T21:53:42.931Z,3.95
2019-05-07T21:56:22.667Z,3.72
2019-05-07T21:58:59.445Z,3.83
2019-05-07T22:01:32.736Z,3.70
2019-05-07T22:04:02.373Z,4.10
2019-05-07T22:06:32.169Z,3.42
2019-05-07T22:09:02.186Z,4.10
2019-05-07T22:11:33.545Z,3.80
2019-05-07T22:14:03.338Z,4.35
2019-05-07T22:16:33.135Z,3.90
2019-05-07T22:19:02.958Z,4.47
2019-05-07T22:21:34.305Z,4.55
2019-05-07T22:24:04.303Z,3.85
2019-05-07T22:26:34.096Z,4.47
2019-05-07T22:29:04.279Z,5.03
2019-05-07T22:31:35.712Z,5.22
2019-05-07T22:34:07.148Z,5.50
2019-05-07T22:36:48.961Z,4.83
2019-05-07T22:39:23.294Z,5.37
2019-05-07T22:41:54.687Z,5.67
2019-05-07T22:44:26.381Z,5.42
2019-05-07T22:46:57.989Z,6.20
2019-05-07T22:49:28.194Z,5.62
2019-05-07T22:51:57.986Z,5.42
2019-05-07T22:54:27.798Z,5.15
2019-05-07T22:57:08.308Z,5.40
2019-05-07T22:59:38.472Z,4.97
2019-05-07T23:02:08.750Z,5.80
2019-05-07T23:04:38.541Z,5.62
2019-05-07T23:07:08.734Z,6.42
2019-05-07T23:09:38.597Z,5.70
2019-05-07T23:12:08.396Z,5.53
2019-05-07T23:14:38.201Z,5.58
2019-05-07T23:17:08.000Z,5.33
2019-05-07T23:19:37.802Z,4.92
2019-05-07T23:22:07.600Z,5.50
2019-05-07T23:24:37.401Z,5.58
2019-05-07T23:27:07.201Z,5.67
2019-05-07T23:29:36.999Z,5.80
2019-05-07T23:32:07.157Z,5.42
2019-05-07T23:34:36.969Z,5.12
2019-05-07T23:37:06.759Z,5.33
2019-05-07T23:39:44.072Z,5.53
2019-05-07T23:42:21.717Z,5.87
2019-05-07T23:44:52.362Z,5.58
2019-05-07T23:47:22.769Z,5.78
2019-05-07T23:49:52.627Z,5.37
2019-05-07T23:52:23.497Z,5.25
2019-05-07T23:54:53.592Z,6.15
2019-05-07T23:57:23.717Z,5.20
2019-05-07T23:59:53.503Z,5.03
